createdAt,value
2022-12-08T00:01:29.721Z,2.96
2022-12-08T00:04:02.501Z,2.95
2022-12-08T00:07:02.250Z,2.93
2022-12-08T00:09:41.297Z,2.93
2022-12-08T00:12:17.400Z,2.93
2022-12-08T00:14:49.304Z,2.93
2022-12-08T00:17:17.291Z,2.92
2022-12-08T00:19:45.069Z,2.93
2022-12-08T00:22:13.391Z,2.95
2022-12-08T00:24:41.552Z,2.98
2022-12-08T00:27:11.131Z,3.03
2022-12-08T00:29:38.809Z,3.07
2022-12-08T00:32:06.614Z,3.08
2022-12-08T00:34:34.068Z,3.11
2022-12-08T00:37:01.255Z,3.11
2022-12-08T00:39:27.947Z,3.13
2022-12-08T00:42:13.094Z,3.13
2022-12-08T00:44:45.798Z,3.13
2022-12-08T00:47:14.155Z,3.11
2022-12-08T00:49:41.090Z,3.12
2022-12-08T00:52:08.401Z,3.15
2022-12-08T00:54:35.589Z,3.15
2022-12-08T00:57:02.772Z,3.15
2022-12-08T00:59:29.563Z,3.15
2022-12-08T01:01:56.462Z,3.14
2022-12-08T01:04:24.198Z,3.13
2022-12-08T01:06:52.083Z,3.13
2022-12-08T01:09:19.148Z,3.11
2022-12-08T01:11:46.546Z,3.11
2022-12-08T01:14:14.165Z,3.14
2022-12-08T01:16:41.932Z,3.18
2022-12-08T01:19:12.331Z,3.20
2022-12-08T01:21:41.013Z,3.19
2022-12-08T01:24:12.491Z,3.19
2022-12-08T01:26:39.495Z,3.21
2022-12-08T01:29:06.293Z,3.19
2022-12-08T01:31:33.188Z,3.19
2022-12-08T01:33:59.921Z,3.18
2022-12-08T01:36:31.252Z,3.18
2022-12-08T01:39:01.741Z,3.14
2022-12-08T01:41:32.526Z,3.15
2022-12-08T01:44:08.397Z,3.17
2022-12-08T01:46:48.769Z,3.13
2022-12-08T01:49:17.415Z,3.13
2022-12-08T01:52:06.367Z,3.13
2022-12-08T01:54:42.179Z,3.10
2022-12-08T01:57:16.007Z,3.10
2022-12-08T01:59:51.213Z,3.07
2022-12-08T02:02:18.097Z,3.08
2022-12-08T02:04:45.105Z,3.07
2022-12-08T02:07:16.272Z,3.06
2022-12-08T02:09:44.520Z,3.06
2022-12-08T02:12:12.143Z,3.06
2022-12-08T02:14:39.342Z,3.07
2022-12-08T02:17:26.188Z,3.06
2022-12-08T02:20:22.227Z,3.07
2022-12-08T02:23:13.079Z,3.06
2022-12-08T02:26:06.045Z,3.05
2022-12-08T02:29:35.287Z,3.04
2022-12-08T02:32:29.167Z,3.08
2022-12-08T02:35:26.229Z,3.07
2022-12-08T02:37:55.432Z,3.06
2022-12-08T02:41:03.552Z,3.07
2022-12-08T02:43:45.262Z,3.07
2022-12-08T02:46:22.705Z,3.06
2022-12-08T02:48:52.598Z,3.08
2022-12-08T02:51:19.851Z,3.08
2022-12-08T02:53:48.687Z,3.11
2022-12-08T02:56:59.235Z,3.11
2022-12-08T02:59:45.789Z,3.08
2022-12-08T03:02:27.248Z,3.08
2022-12-08T03:05:11.397Z,3.07
2022-12-08T03:08:01.905Z,3.10
2022-12-08T03:10:42.995Z,3.10
2022-12-08T03:13:29.776Z,3.07
2022-12-08T03:15:56.860Z,3.07
2022-12-08T03:18:33.202Z,3.07
2022-12-08T03:21:01.568Z,3.06
2022-12-08T03:23:29.527Z,3.06
2022-12-08T03:26:08.657Z,3.03
2022-12-08T03:28:35.607Z,3.03
2022-12-08T03:31:10.002Z,3.02
2022-12-08T03:33:41.685Z,2.99
2022-12-08T03:36:12.303Z,3.00
2022-12-08T03:38:46.562Z,2.96
2022-12-08T03:41:19.563Z,2.93
2022-12-08T03:43:54.847Z,2.93
2022-12-08T03:48:51.421Z,2.91
2022-12-08T03:51:19.298Z,2.92
2022-12-08T03:53:47.026Z,2.94
2022-12-08T03:56:29.389Z,2.97
2022-12-08T03:58:56.778Z,2.99
2022-12-08T04:01:24.184Z,3.03
2022-12-08T04:03:51.536Z,3.04
2022-12-08T04:06:19.763Z,3.04
2022-12-08T04:08:47.428Z,3.06
2022-12-08T04:11:14.903Z,3.10
2022-12-08T04:13:42.735Z,3.11
2022-12-08T04:16:17.821Z,3.16
2022-12-08T04:18:44.766Z,3.18
2022-12-08T04:21:12.070Z,3.18
2022-12-08T04:23:38.871Z,3.18
2022-12-08T04:26:06.585Z,3.18
2022-12-08T04:28:33.541Z,3.17
2022-12-08T04:31:01.032Z,3.16
2022-12-08T04:33:28.007Z,3.16
2022-12-08T04:35:54.960Z,3.17
2022-12-08T04:38:21.737Z,3.16
2022-12-08T04:40:48.556Z,3.16
2022-12-08T04:43:15.499Z,3.20
2022-12-08T04:45:43.276Z,3.21
2022-12-08T04:48:12.668Z,3.22
2022-12-08T04:50:42.895Z,3.21
2022-12-08T04:53:11.439Z,3.18
2022-12-08T04:55:41.937Z,3.18
2022-12-08T04:58:17.095Z,3.19
2022-12-08T05:00:44.617Z,3.19
2022-12-08T05:03:12.145Z,3.19
2022-12-08T05:05:39.360Z,3.18
2022-12-08T05:08:06.447Z,3.15
2022-12-08T05:10:33.431Z,3.15
2022-12-08T05:13:00.929Z,3.15
2022-12-08T05:15:28.221Z,3.19
2022-12-08T05:17:55.224Z,3.20
2022-12-08T05:20:22.457Z,3.19
2022-12-08T05:22:49.269Z,3.20
2022-12-08T05:25:16.099Z,3.20
2022-12-08T05:27:43.439Z,3.19
2022-12-08T05:30:10.521Z,3.18
2022-12-08T05:32:37.251Z,3.18
2022-12-08T05:35:04.211Z,3.16
2022-12-08T05:37:31.091Z,3.12
2022-12-08T05:39:57.896Z,3.10
2022-12-08T05:42:25.218Z,3.03
2022-12-08T05:44:52.515Z,2.98
2022-12-08T05:47:19.430Z,2.93
2022-12-08T05:49:46.397Z,2.87
2022-12-08T05:52:13.195Z,2.81
2022-12-08T05:54:39.887Z,2.81
2022-12-08T05:57:06.862Z,2.78
2022-12-08T05:59:33.666Z,2.77
2022-12-08T06:02:00.660Z,2.77
2022-12-08T06:04:27.530Z,2.77
2022-12-08T06:06:54.379Z,2.76
2022-12-08T06:09:21.835Z,2.76
2022-12-08T06:11:48.712Z,2.78
2022-12-08T06:14:15.639Z,2.78
2022-12-08T06:16:42.544Z,2.79
2022-12-08T06:19:09.432Z,2.79
2022-12-08T06:21:36.143Z,2.79
2022-12-08T06:24:02.891Z,2.82
2022-12-08T06:26:29.652Z,2.85
2022-12-08T06:28:56.525Z,2.90
2022-12-08T06:31:26.574Z,2.88
2022-12-08T06:33:55.399Z,2.88
2022-12-08T06:36:26.573Z,2.86
2022-12-08T06:38:53.448Z,2.81
2022-12-08T06:41:20.392Z,2.81
2022-12-08T06:43:47.338Z,2.80
2022-12-08T06:46:18.979Z,2.83
2022-12-08T06:48:46.146Z,2.85
2022-12-08T06:51:17.973Z,2.85
2022-12-08T06:53:46.623Z,2.84
2022-12-08T06:56:15.909Z,2.86
2022-12-08T06:58:46.180Z,2.87
2022-12-08T07:01:15.735Z,2.87
2022-12-08T07:03:43.603Z,2.86
2022-12-08T07:06:17.654Z,2.85
2022-12-08T07:08:44.511Z,2.85
2022-12-08T07:11:18.040Z,2.85
2022-12-08T07:13:48.372Z,2.87
2022-12-08T07:16:15.314Z,2.86
2022-12-08T07:18:43.007Z,2.88
2022-12-08T07:21:13.276Z,2.88
2022-12-08T07:23:40.091Z,2.87
2022-12-08T07:26:11.199Z,2.86
2022-12-08T07:28:40.555Z,2.88
2022-12-08T07:31:17.446Z,2.88
2022-12-08T07:33:44.434Z,2.88
2022-12-08T07:36:11.867Z,2.92
2022-12-08T07:38:39.566Z,2.94
2022-12-08T07:41:10.997Z,2.95
2022-12-08T07:43:37.743Z,2.95
2022-12-08T07:46:04.674Z,2.97
2022-12-08T07:48:31.479Z,2.98
2022-12-08T07:51:03.738Z,2.98
2022-12-08T07:53:31.376Z,3.00
2022-12-08T07:55:58.208Z,3.01
2022-12-08T07:58:25.832Z,3.01
2022-12-08T08:00:53.611Z,3.04
2022-12-08T08:03:22.017Z,3.07
2022-12-08T08:05:50.067Z,3.10
2022-12-08T08:08:18.553Z,3.10
2022-12-08T08:10:47.345Z,3.09
2022-12-08T08:13:14.333Z,3.07
2022-12-08T08:15:41.497Z,3.05
2022-12-08T08:18:08.413Z,3.04
2022-12-08T08:20:35.460Z,3.01
2022-12-08T08:23:02.234Z,3.00
2022-12-08T08:25:29.067Z,2.99
2022-12-08T08:27:55.859Z,2.95
2022-12-08T08:30:22.706Z,2.92
2022-12-08T08:32:50.723Z,2.92
2022-12-08T08:35:17.631Z,2.90
2022-12-08T08:37:48.526Z,2.90
2022-12-08T08:40:17.717Z,2.91
2022-12-08T08:42:44.461Z,2.93
2022-12-08T08:45:11.586Z,2.94
2022-12-08T08:47:38.376Z,2.92
2022-12-08T08:50:06.440Z,2.92
2022-12-08T08:52:33.630Z,2.93
2022-12-08T08:55:00.380Z,2.90
2022-12-08T08:57:27.267Z,2.86
2022-12-08T08:59:54.435Z,2.77
2022-12-08T09:02:22.148Z,2.69
2022-12-08T09:04:49.161Z,2.65
2022-12-08T09:07:16.867Z,2.64
2022-12-08T09:09:43.696Z,2.60
2022-12-08T09:12:11.307Z,2.59
2022-12-08T09:14:38.335Z,2.60
2022-12-08T09:17:06.211Z,2.58
2022-12-08T09:19:33.051Z,2.59
2022-12-08T09:21:59.835Z,2.57
2022-12-08T09:24:26.880Z,2.57
2022-12-08T09:26:53.661Z,2.56
2022-12-08T09:29:20.429Z,2.59
2022-12-08T09:31:47.389Z,2.60
2022-12-08T09:34:15.927Z,2.64
2022-12-08T09:36:42.767Z,2.63
2022-12-08T09:39:09.716Z,2.61
2022-12-08T09:41:52.405Z,2.59
2022-12-08T09:44:59.975Z,2.58
2022-12-08T09:47:53.053Z,2.58
2022-12-08T09:50:35.208Z,2.58
2022-12-08T09:53:14.827Z,2.58
2022-12-08T09:55:50.849Z,2.61
2022-12-08T09:58:59.277Z,2.65
2022-12-08T10:01:38.368Z,2.67
2022-12-08T10:04:37.255Z,2.73
2022-12-08T10:07:27.610Z,2.79
2022-12-08T10:10:14.637Z,2.85
2022-12-08T10:13:41.600Z,2.84
2022-12-08T10:16:29.752Z,2.88
2022-12-08T10:19:25.276Z,2.88
2022-12-08T10:21:54.212Z,2.92
2022-12-08T10:24:23.722Z,2.99
2022-12-08T10:26:50.517Z,3.03
2022-12-08T10:29:17.542Z,3.05
2022-12-08T10:31:44.519Z,3.08
2022-12-08T10:34:25.215Z,3.12
2022-12-08T10:36:59.050Z,3.15
2022-12-08T10:39:46.911Z,3.15
2022-12-08T10:42:13.572Z,3.13
2022-12-08T10:45:09.839Z,3.11
2022-12-08T10:47:44.578Z,3.08
2022-12-08T10:50:32.377Z,3.14
2022-12-08T10:53:14.015Z,3.16
2022-12-08T10:56:05.033Z,3.18
2022-12-08T10:58:44.259Z,3.19
2022-12-08T11:01:20.019Z,3.20
2022-12-08T11:04:22.591Z,3.26
2022-12-08T11:06:51.853Z,3.28
2022-12-08T11:09:21.290Z,3.28
2022-12-08T11:11:51.437Z,3.27
2022-12-08T11:14:30.128Z,3.27
2022-12-08T11:17:07.354Z,3.29
2022-12-08T11:19:40.325Z,3.32
2022-12-08T11:22:33.012Z,3.31
2022-12-08T11:25:11.786Z,3.27
2022-12-08T11:27:49.748Z,3.23
2022-12-08T11:30:25.068Z,3.23
2022-12-08T11:33:00.699Z,3.24
2022-12-08T11:35:37.160Z,3.25
2022-12-08T11:38:21.494Z,3.30
2022-12-08T11:40:55.708Z,3.34
2022-12-08T11:43:34.376Z,3.37
2022-12-08T11:46:17.624Z,3.39
2022-12-08T11:49:06.219Z,3.40
2022-12-08T11:51:48.656Z,3.40
2022-12-08T11:54:27.843Z,3.43
2022-12-08T11:57:20.708Z,3.49
2022-12-08T11:59:52.027Z,3.53
2022-12-08T12:02:27.059Z,3.55
2022-12-08T12:05:23.600Z,3.58
2022-12-08T12:08:46.583Z,3.60
2022-12-08T12:11:58.032Z,3.58
2022-12-08T12:14:50.783Z,3.53
2022-12-08T12:17:52.964Z,3.55
2022-12-08T12:20:42.309Z,3.58
2022-12-08T12:23:59.088Z,3.62
2022-12-08T12:26:32.264Z,3.62
2022-12-08T12:29:35.692Z,3.57
2022-12-08T12:32:10.436Z,3.45
2022-12-08T12:35:00.954Z,3.39
2022-12-08T12:37:42.659Z,3.34
2022-12-08T12:40:26.526Z,3.31
2022-12-08T12:42:56.257Z,3.30
2022-12-08T12:45:31.323Z,3.28
2022-12-08T12:47:59.864Z,3.27
2022-12-08T12:50:37.081Z,3.27
2022-12-08T12:53:15.966Z,3.27
2022-12-08T12:55:45.680Z,3.27
2022-12-08T12:58:44.963Z,3.28
2022-12-08T13:01:11.993Z,3.28
2022-12-08T13:04:09.163Z,3.23
2022-12-08T13:06:50.446Z,3.23
2022-12-08T13:09:26.808Z,3.23
2022-12-08T13:11:59.776Z,3.25
2022-12-08T13:14:32.140Z,3.25
2022-12-08T13:17:02.681Z,3.24
2022-12-08T13:19:33.065Z,3.18
2022-12-08T13:22:00.907Z,3.15
2022-12-08T13:24:34.954Z,3.15
2022-12-08T13:27:04.369Z,3.13
2022-12-08T13:29:33.072Z,3.10
2022-12-08T13:32:09.956Z,3.11
2022-12-08T13:34:53.154Z,3.13
2022-12-08T13:37:39.650Z,3.15
2022-12-08T13:40:27.189Z,3.21
2022-12-08T13:43:18.044Z,3.24
2022-12-08T13:56:24.275Z,3.28
2022-12-08T13:57:35.676Z,3.27
2022-12-08T14:00:14.605Z,3.27
2022-12-08T14:02:53.060Z,3.19
2022-12-08T14:05:40.660Z,3.16
2022-12-08T14:08:58.396Z,3.17
2022-12-08T14:11:34.333Z,3.18
2022-12-08T14:14:13.046Z,3.21
2022-12-08T14:16:49.094Z,3.23
2022-12-08T14:19:26.745Z,3.23
2022-12-08T14:22:12.938Z,3.20
2022-12-08T14:24:45.080Z,3.17
2022-12-08T14:27:26.881Z,3.16
2022-12-08T14:30:01.586Z,3.12
2022-12-08T14:32:35.039Z,3.07
2022-12-08T14:35:07.638Z,3.04
2022-12-08T14:37:51.101Z,3.01
2022-12-08T14:40:42.727Z,2.99
2022-12-08T14:43:09.463Z,2.97
2022-12-08T14:45:45.056Z,2.95
2022-12-08T14:48:30.571Z,2.94
2022-12-08T14:51:21.203Z,2.89
2022-12-08T14:53:58.500Z,2.85
2022-12-08T14:56:51.709Z,2.85
2022-12-08T14:59:37.991Z,2.80
2022-12-08T15:02:28.445Z,2.75
2022-12-08T15:05:16.992Z,2.74
2022-12-08T15:07:48.818Z,2.75
2022-12-08T15:10:15.706Z,2.79
2022-12-08T15:13:28.512Z,2.84
2022-12-08T15:15:57.876Z,2.83
2022-12-08T15:18:37.582Z,2.85
2022-12-08T15:21:09.044Z,2.85
2022-12-08T15:23:44.981Z,2.86
2022-12-08T15:26:28.225Z,2.85
2022-12-08T15:28:55.880Z,2.83
2022-12-08T15:31:22.697Z,2.79
2022-12-08T15:33:49.592Z,2.74
2022-12-08T15:36:16.400Z,2.67
2022-12-08T15:38:43.627Z,2.61
2022-12-08T15:41:14.788Z,2.53
2022-12-08T15:43:42.286Z,2.46
2022-12-08T15:46:09.086Z,2.39
2022-12-08T15:48:37.781Z,2.37
2022-12-08T15:51:04.573Z,2.32
2022-12-08T15:53:31.267Z,2.26
2022-12-08T15:58:56.911Z,2.14
2022-12-08T16:01:24.821Z,2.13
2022-12-08T16:09:36.510Z,2.27
2022-12-08T16:12:22.910Z,2.27
2022-12-08T16:17:38.312Z,2.18
2022-12-08T16:20:15.065Z,2.14
2022-12-08T16:23:07.958Z,2.05
2022-12-08T16:25:46.196Z,1.97
2022-12-08T16:28:52.275Z,1.91
2022-12-08T16:31:04.755Z,1.86
2022-12-08T16:33:33.263Z,1.87
2022-12-08T16:35:59.990Z,1.90
2022-12-08T16:38:26.803Z,1.93
2022-12-08T16:41:12.102Z,1.96
2022-12-08T16:43:38.844Z,1.97
2022-12-08T16:46:05.733Z,2.00
2022-12-08T16:48:32.541Z,2.04
2022-12-08T16:50:59.361Z,2.11
2022-12-08T16:53:26.129Z,2.15
2022-12-08T16:55:52.864Z,2.17
2022-12-08T16:58:20.064Z,2.17
2022-12-08T17:00:47.228Z,2.17
2022-12-08T17:03:16.629Z,2.16
2022-12-08T17:05:43.961Z,2.14
2022-12-08T17:08:11.798Z,2.12
2022-12-08T17:10:40.130Z,2.13
2022-12-08T17:13:07.364Z,2.14
2022-12-08T17:15:34.535Z,2.17
2022-12-08T17:18:02.921Z,2.21
2022-12-08T17:20:29.693Z,2.25
2022-12-08T17:22:58.546Z,2.26
2022-12-08T17:25:27.305Z,2.28
2022-12-08T17:27:56.324Z,2.28
2022-12-08T17:30:23.775Z,2.25
2022-12-08T17:32:52.756Z,2.22
2022-12-08T17:35:19.844Z,2.18
2022-12-08T17:37:46.661Z,2.16
2022-12-08T17:40:13.516Z,2.14
2022-12-08T17:42:40.461Z,2.15
2022-12-08T17:45:08.672Z,2.13
2022-12-08T17:47:35.439Z,2.11
2022-12-08T17:50:02.489Z,2.11
2022-12-08T17:52:29.488Z,2.13
2022-12-08T17:54:56.435Z,2.13
2022-12-08T17:57:23.236Z,2.08
2022-12-08T17:59:50.028Z,2.06
2022-12-08T18:02:17.047Z,2.08
2022-12-08T18:04:43.833Z,2.08
2022-12-08T18:07:10.552Z,2.08
2022-12-08T18:09:37.490Z,2.09
2022-12-08T18:12:04.536Z,2.10
2022-12-08T18:14:31.478Z,2.12
2022-12-08T18:16:58.300Z,2.07
2022-12-08T18:19:26.304Z,2.00
2022-12-08T18:21:53.125Z,1.94
2022-12-08T18:24:24.071Z,1.87
2022-12-08T18:26:55.240Z,1.83
2022-12-08T18:29:23.008Z,1.78
2022-12-08T18:31:51.140Z,1.69
2022-12-08T18:34:21.072Z,1.63
2022-12-08T18:36:48.494Z,1.62
2022-12-08T18:39:28.644Z,1.58
2022-12-08T18:41:58.111Z,1.56
2022-12-08T18:44:25.316Z,1.54
2022-12-08T18:46:52.195Z,1.56
2022-12-08T18:49:19.894Z,1.61
2022-12-08T18:51:47.263Z,1.65
2022-12-08T18:54:14.153Z,1.67
2022-12-08T18:56:41.067Z,1.70
2022-12-08T18:59:11.742Z,1.70
2022-12-08T19:01:40.456Z,1.65
2022-12-08T19:06:57.117Z,1.47
2022-12-08T19:09:26.572Z,1.36
2022-12-08T19:11:53.431Z,1.28
2022-12-08T19:14:24.133Z,1.24
2022-12-08T19:16:54.658Z,1.21
2022-12-08T19:19:21.817Z,1.19
2022-12-08T19:21:48.670Z,1.13
2022-12-08T19:24:15.478Z,1.14
2022-12-08T19:26:43.251Z,1.13
2022-12-08T19:29:11.091Z,1.14
2022-12-08T19:31:37.994Z,1.08
2022-12-08T19:34:06.072Z,1.08
2022-12-08T19:36:35.593Z,1.10
2022-12-08T19:39:23.020Z,1.06
2022-12-08T19:42:09.252Z,1.10
2022-12-08T19:44:54.393Z,1.14
2022-12-08T19:47:27.039Z,1.10
2022-12-08T19:50:15.259Z,1.07
2022-12-08T19:52:43.271Z,1.07
2022-12-08T19:55:10.436Z,1.04
2022-12-08T19:57:37.207Z,0.98
2022-12-08T20:00:05.663Z,1.02
2022-12-08T20:02:37.008Z,1.09
2022-12-08T20:05:05.890Z,1.10
2022-12-08T20:07:32.759Z,1.08
2022-12-08T20:09:59.701Z,1.03
2022-12-08T20:12:26.455Z,0.97
2022-12-08T20:14:53.202Z,0.97
2022-12-08T20:17:20.039Z,1.00
2022-12-08T20:19:46.988Z,0.99
2022-12-08T20:22:13.776Z,0.96
2022-12-08T20:24:40.625Z,0.94
2022-12-08T20:27:07.565Z,0.93
2022-12-08T20:29:34.374Z,0.90
2022-12-08T20:32:01.246Z,0.87
2022-12-08T20:34:28.175Z,0.83
2022-12-08T20:36:55.178Z,0.81
2022-12-08T20:39:21.978Z,0.77
2022-12-08T20:41:49.219Z,0.76
2022-12-08T20:44:16.260Z,0.75
2022-12-08T20:46:49.016Z,0.73
2022-12-08T20:49:16.739Z,0.68
2022-12-08T20:51:44.444Z,0.61
2022-12-08T20:54:11.704Z,0.53
2022-12-08T20:56:44.770Z,0.46
2022-12-08T20:59:17.868Z,0.42
2022-12-08T21:01:45.063Z,0.40
2022-12-08T21:04:13.134Z,0.40
2022-12-08T21:06:40.256Z,0.44
2022-12-08T21:09:07.349Z,0.50
2022-12-08T21:11:34.426Z,0.55
2022-12-08T21:14:01.526Z,0.62
2022-12-08T21:16:28.389Z,0.68
2022-12-08T21:18:55.320Z,0.81
2022-12-08T21:21:22.322Z,0.89
2022-12-08T21:23:49.269Z,0.92
2022-12-08T21:26:20.260Z,0.92
2022-12-08T21:28:48.012Z,0.93
2022-12-08T21:31:18.831Z,0.96
2022-12-08T21:33:45.888Z,1.03
2022-12-08T21:36:16.800Z,1.03
2022-12-08T21:38:44.598Z,1.02
2022-12-08T21:41:37.258Z,0.96
2022-12-08T21:44:05.469Z,0.95
2022-12-08T21:46:33.642Z,0.97
2022-12-08T21:49:00.628Z,1.01
2022-12-08T21:51:28.059Z,1.06
2022-12-08T21:53:55.085Z,1.07
2022-12-08T21:56:22.038Z,1.09
2022-12-08T21:58:49.525Z,1.14
2022-12-08T22:01:16.529Z,1.21
2022-12-08T22:03:43.595Z,1.25
2022-12-08T22:06:13.548Z,1.32
2022-12-08T22:08:41.782Z,1.34
2022-12-08T22:11:10.350Z,1.38
2022-12-08T22:13:40.471Z,1.42
2022-12-08T22:16:11.538Z,1.40
2022-12-08T22:18:38.770Z,1.47
2022-12-08T22:21:16.060Z,1.45
2022-12-08T22:23:44.067Z,1.44
2022-12-08T22:26:12.647Z,1.47
2022-12-08T22:28:42.937Z,1.49
2022-12-08T22:31:13.056Z,1.54
2022-12-08T22:33:41.552Z,1.53
2022-12-08T22:36:15.708Z,1.51
2022-12-08T22:38:43.011Z,1.51
2022-12-08T22:41:09.804Z,1.51
2022-12-08T22:43:37.337Z,1.53
2022-12-08T22:46:14.518Z,1.55
2022-12-08T22:48:41.601Z,1.48
2022-12-08T22:51:09.253Z,1.42
2022-12-08T22:53:36.732Z,1.42
2022-12-08T22:56:06.441Z,1.47
2022-12-08T22:58:33.815Z,1.53
2022-12-08T23:01:00.590Z,1.57
2022-12-08T23:03:27.566Z,1.61
2022-12-08T23:05:54.749Z,1.64
2022-12-08T23:08:21.811Z,1.63
2022-12-08T23:10:54.428Z,1.64
2022-12-08T23:13:21.975Z,1.65
2022-12-08T23:15:50.005Z,1.69
2022-12-08T23:18:19.292Z,1.72
2022-12-08T23:20:48.228Z,1.71
2022-12-08T23:23:15.492Z,1.68
2022-12-08T23:25:43.265Z,1.70
2022-12-08T23:28:11.313Z,1.75
2022-12-08T23:30:41.993Z,1.73
2022-12-08T23:33:08.989Z,1.75
2022-12-08T23:35:35.986Z,1.73
2022-12-08T23:38:02.979Z,1.71
2022-12-08T23:40:29.925Z,1.71
2022-12-08T23:42:56.689Z,1.68
2022-12-08T23:45:23.448Z,1.70
2022-12-08T23:47:50.295Z,1.70
2022-12-08T23:50:17.156Z,1.71
2022-12-08T23:52:44.006Z,1.73
2022-12-08T23:55:11.211Z,1.74
2022-12-08T23:57:38.601Z,1.73
